createdAt,value
2022-12-18T00:02:13.048Z,-7.72
2022-12-18T00:04:39.743Z,-7.68
2022-12-18T00:07:06.132Z,-7.74
2022-12-18T00:09:39.964Z,-7.58
2022-12-18T00:14:42.623Z,-7.63
2022-12-18T00:17:09.142Z,-7.56
2022-12-18T00:19:35.790Z,-7.64
2022-12-18T00:22:02.278Z,-7.59
2022-12-18T00:24:28.799Z,-7.60
2022-12-18T00:26:55.137Z,-7.50
2022-12-18T00:29:21.640Z,-7.45
2022-12-18T00:31:48.201Z,-7.42
2022-12-18T00:34:14.806Z,-7.54
2022-12-18T00:36:42.210Z,-7.59
2022-12-18T00:39:09.339Z,-7.57
2022-12-18T00:41:54.504Z,-7.47
2022-12-18T00:44:20.901Z,-7.48
2022-12-18T00:46:49.041Z,-7.47
2022-12-18T00:49:21.300Z,-7.36
2022-12-18T00:51:48.969Z,-7.34
2022-12-18T00:54:16.292Z,-7.25
2022-12-18T00:56:49.433Z,-7.25
2022-12-18T00:59:19.901Z,-7.18
2022-12-18T01:01:47.693Z,-7.05
2022-12-18T01:04:15.474Z,-7.06
2022-12-18T01:06:41.964Z,-6.95
2022-12-18T01:09:08.474Z,-6.95
2022-12-18T01:11:34.974Z,-6.85
2022-12-18T01:14:01.820Z,-6.83
2022-12-18T01:16:28.385Z,-6.90
2022-12-18T01:18:55.787Z,-6.77
2022-12-18T01:21:23.577Z,-6.75
2022-12-18T01:23:54.946Z,-6.64
2022-12-18T01:26:21.544Z,-6.55
2022-12-18T01:28:48.301Z,-6.54
2022-12-18T01:31:17.425Z,-6.53
2022-12-18T01:33:45.138Z,-6.51
2022-12-18T01:36:21.385Z,-6.59
2022-12-18T01:38:48.425Z,-6.42
2022-12-18T01:41:16.960Z,-6.40
2022-12-18T01:43:58.370Z,-6.38
2022-12-18T01:46:26.715Z,-6.39
2022-12-18T01:49:02.369Z,-6.46
2022-12-18T01:51:31.005Z,-6.48
2022-12-18T01:53:58.409Z,-6.43
2022-12-18T01:56:24.913Z,-6.49
2022-12-18T01:59:02.827Z,-6.46
2022-12-18T02:01:31.435Z,-6.30
2022-12-18T02:04:20.153Z,-6.30
2022-12-18T02:06:51.640Z,-6.26
2022-12-18T02:09:31.574Z,-6.33
2022-12-18T02:12:12.564Z,-6.42
2022-12-18T02:15:13.644Z,-6.43
2022-12-18T02:17:51.213Z,-6.26
2022-12-18T02:20:26.138Z,-6.24
2022-12-18T02:23:06.876Z,-6.21
2022-12-18T02:25:54.889Z,-6.11
2022-12-18T02:28:26.639Z,-6.13
2022-12-18T02:30:57.468Z,-6.14
2022-12-18T02:33:26.436Z,-6.19
2022-12-18T02:35:55.924Z,-6.19
2022-12-18T02:38:24.229Z,-6.13
2022-12-18T02:40:52.728Z,-6.11
2022-12-18T02:43:19.210Z,-6.07
2022-12-18T02:45:53.073Z,-6.08
2022-12-18T02:48:25.157Z,-6.01
2022-12-18T02:51:14.946Z,-5.93
2022-12-18T02:53:49.060Z,-5.97
2022-12-18T02:56:19.656Z,-5.87
2022-12-18T02:59:16.457Z,-5.91
2022-12-18T03:01:51.851Z,-5.86
2022-12-18T03:04:35.239Z,-5.85
2022-12-18T03:07:06.220Z,-5.81
2022-12-18T03:09:39.408Z,-5.86
2022-12-18T03:12:24.884Z,-5.75
2022-12-18T03:14:57.392Z,-5.71
2022-12-18T03:17:27.734Z,-5.80
2022-12-18T03:19:57.757Z,-5.83
2022-12-18T03:22:28.192Z,-5.76
2022-12-18T03:24:57.043Z,-5.75
2022-12-18T03:27:25.512Z,-5.79
2022-12-18T03:30:08.362Z,-5.76
2022-12-18T03:33:00.448Z,-5.64
2022-12-18T03:35:31.896Z,-5.75
2022-12-18T03:37:58.614Z,-5.67
2022-12-18T03:40:36.144Z,-5.64
2022-12-18T03:43:17.456Z,-5.63
2022-12-18T03:45:52.316Z,-5.69
2022-12-18T03:48:38.789Z,-5.64
2022-12-18T03:51:19.301Z,-5.63
2022-12-18T03:53:53.897Z,-5.70
2022-12-18T03:56:24.880Z,-5.62
2022-12-18T03:58:53.197Z,-5.63
2022-12-18T04:01:23.372Z,-5.57
2022-12-18T04:03:51.068Z,-5.58
2022-12-18T04:06:18.672Z,-5.53
2022-12-18T04:08:45.572Z,-5.47
2022-12-18T04:11:12.078Z,-5.49
2022-12-18T04:13:39.802Z,-5.43
2022-12-18T04:16:07.213Z,-5.40
2022-12-18T04:18:33.780Z,-5.38
2022-12-18T04:21:00.080Z,-5.38
2022-12-18T04:23:26.508Z,-5.35
2022-12-18T04:25:53.161Z,-5.37
2022-12-18T04:28:19.670Z,-5.29
2022-12-18T04:30:49.419Z,-5.17
2022-12-18T04:33:18.640Z,-5.18
2022-12-18T04:35:45.793Z,-5.13
2022-12-18T04:38:12.378Z,-5.28
2022-12-18T04:40:39.788Z,-5.23
2022-12-18T04:43:08.256Z,-5.18
2022-12-18T04:45:34.885Z,-5.22
2022-12-18T04:48:02.196Z,-5.19
2022-12-18T04:50:29.589Z,-5.10
2022-12-18T04:52:56.366Z,-5.14
2022-12-18T04:55:25.801Z,-5.16
2022-12-18T04:57:52.490Z,-5.29
2022-12-18T05:00:19.266Z,-5.15
2022-12-18T05:02:46.055Z,-5.10
2022-12-18T05:05:12.640Z,-5.16
2022-12-18T05:07:39.309Z,-5.19
2022-12-18T05:10:09.185Z,-5.10
2022-12-18T05:12:57.187Z,-4.88
2022-12-18T05:15:23.811Z,-4.96
2022-12-18T05:17:50.121Z,-4.95
2022-12-18T05:20:16.685Z,-5.00
2022-12-18T05:22:43.165Z,-5.04
2022-12-18T05:25:09.788Z,-4.94
2022-12-18T05:27:36.432Z,-5.01
2022-12-18T05:30:02.985Z,-4.93
2022-12-18T05:32:29.356Z,-5.00
2022-12-18T05:34:55.844Z,-4.93
2022-12-18T05:37:22.337Z,-4.87
2022-12-18T05:39:48.812Z,-4.87
2022-12-18T05:42:15.304Z,-4.82
2022-12-18T05:44:41.901Z,-4.78
2022-12-18T05:47:08.485Z,-4.78
2022-12-18T05:49:35.151Z,-4.87
2022-12-18T05:52:01.917Z,-4.87
2022-12-18T05:54:29.275Z,-4.99
2022-12-18T05:56:55.804Z,-4.97
2022-12-18T05:59:22.366Z,-4.91
2022-12-18T06:01:49.075Z,-4.95
2022-12-18T06:04:15.736Z,-5.09
2022-12-18T06:06:42.344Z,-5.07
2022-12-18T06:09:10.525Z,-5.20
2022-12-18T06:11:38.120Z,-5.06
2022-12-18T06:14:06.174Z,-5.06
2022-12-18T06:16:33.105Z,-5.15
2022-12-18T06:19:01.826Z,-5.03
2022-12-18T06:21:29.910Z,-5.03
2022-12-18T06:23:56.585Z,-5.05
2022-12-18T06:26:28.013Z,-4.99
2022-12-18T06:28:54.996Z,-4.90
2022-12-18T06:31:21.540Z,-4.96
2022-12-18T06:33:48.057Z,-4.98
2022-12-18T06:36:14.853Z,-4.87
2022-12-18T06:38:43.823Z,-4.87
2022-12-18T06:41:16.333Z,-4.94
2022-12-18T06:43:43.433Z,-4.97
2022-12-18T06:46:10.818Z,-4.88
2022-12-18T06:48:37.780Z,-5.00
2022-12-18T06:51:04.833Z,-5.08
2022-12-18T06:53:33.270Z,-5.11
2022-12-18T06:56:09.481Z,-4.92
2022-12-18T06:58:37.047Z,-5.02
2022-12-18T07:01:05.568Z,-4.90
2022-12-18T07:03:32.383Z,-4.96
2022-12-18T07:05:58.872Z,-4.91
2022-12-18T07:08:25.932Z,-4.86
2022-12-18T07:10:56.021Z,-4.91
2022-12-18T07:13:23.362Z,-4.88
2022-12-18T07:15:49.978Z,-4.78
2022-12-18T07:18:16.470Z,-4.73
2022-12-18T07:20:42.828Z,-4.81
2022-12-18T07:23:09.331Z,-4.68
2022-12-18T07:25:36.762Z,-4.60
2022-12-18T07:28:04.007Z,-4.66
2022-12-18T07:30:30.328Z,-4.68
2022-12-18T07:32:56.873Z,-4.61
2022-12-18T07:35:25.224Z,-4.58
2022-12-18T07:37:52.049Z,-4.55
2022-12-18T07:40:18.594Z,-4.60
2022-12-18T07:42:45.073Z,-4.60
2022-12-18T07:45:11.953Z,-4.57
2022-12-18T07:47:38.748Z,-4.58
2022-12-18T07:50:06.405Z,-4.44
2022-12-18T07:52:32.984Z,-4.60
2022-12-18T07:54:59.953Z,-4.42
2022-12-18T07:57:49.924Z,-4.42
2022-12-18T08:00:14.003Z,-4.29
2022-12-18T08:02:40.717Z,-4.22
2022-12-18T08:05:09.265Z,-4.16
2022-12-18T08:07:35.741Z,-4.20
2022-12-18T08:10:02.282Z,-4.16
2022-12-18T08:12:28.822Z,-4.12
2022-12-18T08:14:55.289Z,-4.36
2022-12-18T08:17:21.787Z,-4.07
2022-12-18T08:19:48.114Z,-3.98
2022-12-18T08:22:14.467Z,-4.13
2022-12-18T08:24:41.134Z,-4.18
2022-12-18T08:27:28.418Z,-4.37
2022-12-18T08:29:53.958Z,-4.33
2022-12-18T08:32:20.469Z,-4.41
2022-12-18T08:34:46.995Z,-4.33
2022-12-18T08:37:13.352Z,-4.13
2022-12-18T08:39:39.827Z,-4.21
2022-12-18T08:42:25.003Z,-4.09
2022-12-18T08:44:51.308Z,-4.24
2022-12-18T08:47:17.804Z,-3.99
2022-12-18T08:49:44.327Z,-3.84
2022-12-18T08:52:10.804Z,-4.04
2022-12-18T08:54:37.335Z,-4.03
2022-12-18T08:57:03.841Z,-4.01
2022-12-18T08:59:30.333Z,-4.27
2022-12-18T09:01:57.034Z,-3.99
2022-12-18T09:04:24.067Z,-3.83
2022-12-18T09:06:50.720Z,-3.77
2022-12-18T09:09:17.337Z,-3.93
2022-12-18T09:11:43.703Z,-3.81
2022-12-18T09:14:11.189Z,-3.63
2022-12-18T09:16:37.824Z,-3.70
2022-12-18T09:19:05.379Z,-3.40
2022-12-18T09:21:36.929Z,-3.39
2022-12-18T09:24:05.218Z,-3.33
2022-12-18T09:26:35.548Z,-3.41
2022-12-18T09:29:03.478Z,-3.22
2022-12-18T09:31:30.014Z,-3.57
2022-12-18T09:33:57.590Z,-3.53
2022-12-18T09:36:24.201Z,-3.37
2022-12-18T09:38:50.846Z,-3.18
2022-12-18T09:41:42.094Z,-3.17
2022-12-18T09:44:18.331Z,-3.40
2022-12-18T09:46:49.909Z,-3.14
2022-12-18T09:49:21.452Z,-3.07
2022-12-18T09:52:09.536Z,-3.25
2022-12-18T09:54:44.903Z,-3.29
2022-12-18T09:57:16.650Z,-3.20
2022-12-18T09:59:47.732Z,-3.35
2022-12-18T10:02:17.906Z,-3.41
2022-12-18T10:04:47.581Z,-2.99
2022-12-18T10:07:29.384Z,-2.89
2022-12-18T10:10:05.368Z,-3.03
2022-12-18T10:12:47.535Z,-2.83
2022-12-18T10:15:31.151Z,-2.98
2022-12-18T10:18:23.673Z,-3.17
2022-12-18T10:21:04.626Z,-3.45
2022-12-18T10:23:48.157Z,-3.01
2022-12-18T10:26:15.375Z,-2.95
2022-12-18T10:28:44.720Z,-3.19
2022-12-18T10:31:18.437Z,-3.28
2022-12-18T10:33:45.350Z,-3.28
2022-12-18T10:36:12.928Z,-3.28
2022-12-18T10:38:39.727Z,-3.14
2022-12-18T10:41:12.531Z,-2.89
2022-12-18T10:43:40.583Z,-3.08
2022-12-18T10:46:09.956Z,-2.64
2022-12-18T10:48:48.564Z,-2.60
2022-12-18T10:51:38.433Z,-2.52
2022-12-18T10:54:07.835Z,-2.39
2022-12-18T10:56:36.787Z,-2.23
2022-12-18T10:59:08.855Z,-2.81
2022-12-18T11:01:56.521Z,-2.70
2022-12-18T11:04:33.028Z,-2.86
2022-12-18T11:07:08.689Z,-2.75
2022-12-18T11:09:39.949Z,-2.76
2022-12-18T11:12:23.527Z,-2.74
2022-12-18T11:14:53.009Z,-3.05
2022-12-18T11:17:29.228Z,-2.98
2022-12-18T11:19:58.313Z,-2.83
2022-12-18T11:22:28.924Z,-2.30
2022-12-18T11:25:36.549Z,-2.63
2022-12-18T11:27:56.828Z,-2.66
2022-12-18T11:30:35.394Z,-2.61
2022-12-18T11:33:11.348Z,-2.52
2022-12-18T11:35:57.071Z,-2.18
2022-12-18T11:38:27.149Z,-2.35
2022-12-18T11:41:05.821Z,-2.39
2022-12-18T11:43:45.724Z,-2.33
2022-12-18T11:46:19.832Z,-2.46
2022-12-18T11:48:57.308Z,-2.28
2022-12-18T11:51:36.338Z,-2.66
2022-12-18T11:54:14.727Z,-2.66
2022-12-18T11:57:04.144Z,-2.82
2022-12-18T11:59:36.580Z,-2.49
2022-12-18T12:02:27.992Z,-2.76
2022-12-18T12:05:12.818Z,-2.66
2022-12-18T12:07:58.788Z,-2.79
2022-12-18T12:10:34.988Z,-3.04
2022-12-18T12:13:18.174Z,-2.93
2022-12-18T12:16:16.701Z,-2.48
2022-12-18T12:19:13.785Z,-2.68
2022-12-18T12:21:52.643Z,-2.28
2022-12-18T12:24:50.170Z,-2.45
2022-12-18T12:27:40.725Z,-2.47
2022-12-18T12:30:31.217Z,-2.64
2022-12-18T12:33:19.139Z,-2.66
2022-12-18T12:36:08.763Z,-2.44
2022-12-18T12:38:49.862Z,-2.70
2022-12-18T12:41:41.948Z,-2.76
2022-12-18T12:44:15.345Z,-2.53
2022-12-18T12:46:44.482Z,-2.25
2022-12-18T12:49:16.491Z,-2.27
2022-12-18T12:51:48.219Z,-2.40
2022-12-18T12:54:24.702Z,-2.52
2022-12-18T12:57:03.218Z,-2.41
2022-12-18T12:59:43.380Z,-2.56
2022-12-18T13:02:36.924Z,-2.76
2022-12-18T13:05:24.246Z,-2.77
2022-12-18T13:08:00.424Z,-2.80
2022-12-18T13:10:31.939Z,-2.85
2022-12-18T13:13:21.141Z,-2.63
2022-12-18T13:16:08.454Z,-2.59
2022-12-18T13:18:35.551Z,-2.24
2022-12-18T13:21:03.734Z,-2.18
2022-12-18T13:23:32.613Z,-2.30
2022-12-18T13:26:11.315Z,-2.83
2022-12-18T13:28:47.486Z,-2.62
2022-12-18T13:31:17.829Z,-2.73
2022-12-18T13:34:24.662Z,-2.40
2022-12-18T13:36:35.326Z,-2.68
2022-12-18T13:39:19.753Z,-2.80
2022-12-18T13:42:34.133Z,-2.66
2022-12-18T13:45:00.886Z,-2.64
2022-12-18T13:47:34.540Z,-2.81
2022-12-18T13:50:10.060Z,-2.83
2022-12-18T13:52:40.213Z,-2.71
2022-12-18T13:55:16.859Z,-2.79
2022-12-18T13:57:43.277Z,-2.75
2022-12-18T14:00:29.852Z,-2.85
2022-12-18T14:02:58.641Z,-2.96
2022-12-18T14:05:27.546Z,-2.97
2022-12-18T14:07:55.393Z,-3.04
2022-12-18T14:13:16.562Z,-3.00
2022-12-18T14:15:47.582Z,-3.06
2022-12-18T14:18:26.388Z,-3.09
2022-12-18T14:20:57.658Z,-3.15
2022-12-18T14:23:37.553Z,-3.15
2022-12-18T14:26:22.102Z,-3.14
2022-12-18T14:28:49.196Z,-3.18
2022-12-18T14:31:25.135Z,-3.17
2022-12-18T14:33:52.568Z,-3.01
2022-12-18T14:36:26.120Z,-3.29
2022-12-18T14:38:57.606Z,-3.13
2022-12-18T14:41:24.988Z,-3.09
2022-12-18T14:43:53.364Z,-3.17
2022-12-18T14:46:34.318Z,-3.21
2022-12-18T14:49:19.759Z,-3.29
2022-12-18T14:51:56.210Z,-3.43
2022-12-18T14:54:24.064Z,-3.63
2022-12-18T14:56:57.578Z,-3.79
2022-12-18T14:59:26.104Z,-3.78
2022-12-18T15:01:58.939Z,-3.78
2022-12-18T15:04:29.841Z,-3.74
2022-12-18T15:07:17.419Z,-3.84
2022-12-18T15:10:01.736Z,-3.74
2022-12-18T15:12:35.516Z,-3.69
2022-12-18T15:15:02.467Z,-3.96
2022-12-18T15:17:29.371Z,-3.88
2022-12-18T15:20:09.439Z,-3.83
2022-12-18T15:22:37.802Z,-3.83
2022-12-18T15:25:30.186Z,-3.81
2022-12-18T15:27:56.751Z,-3.85
2022-12-18T15:30:26.305Z,-4.05
2022-12-18T15:33:26.024Z,-3.87
2022-12-18T15:36:04.368Z,-3.90
2022-12-18T15:38:31.540Z,-3.98
2022-12-18T15:40:58.488Z,-4.03
2022-12-18T15:43:34.870Z,-3.94
2022-12-18T15:46:03.250Z,-4.04
2022-12-18T15:48:30.241Z,-4.05
2022-12-18T15:50:59.338Z,-4.02
2022-12-18T15:53:30.490Z,-4.00
2022-12-18T15:56:15.736Z,-4.08
2022-12-18T15:58:42.986Z,-4.13
2022-12-18T16:01:11.201Z,-4.12
2022-12-18T16:03:37.895Z,-4.18
2022-12-18T16:06:04.731Z,-4.10
2022-12-18T16:08:32.060Z,-4.05
2022-12-18T16:10:59.337Z,-4.11
2022-12-18T16:13:25.920Z,-4.13
2022-12-18T16:15:52.601Z,-4.17
2022-12-18T16:18:18.992Z,-4.02
2022-12-18T16:20:45.472Z,-4.05
2022-12-18T16:23:11.797Z,-4.05
2022-12-18T16:25:38.116Z,-4.07
2022-12-18T16:28:04.546Z,-3.99
2022-12-18T16:30:32.347Z,-4.09
2022-12-18T16:33:05.225Z,-4.10
2022-12-18T16:35:31.846Z,-4.15
2022-12-18T16:37:58.186Z,-4.13
2022-12-18T16:40:24.578Z,-4.15
2022-12-18T16:42:51.085Z,-4.02
2022-12-18T16:45:18.468Z,-3.98
2022-12-18T16:47:45.336Z,-4.01
2022-12-18T16:50:12.241Z,-4.00
2022-12-18T16:52:39.125Z,-3.94
2022-12-18T16:55:06.168Z,-3.81
2022-12-18T16:57:33.218Z,-4.13
2022-12-18T17:00:04.781Z,-4.18
2022-12-18T17:02:32.173Z,-4.13
2022-12-18T17:05:00.015Z,-4.07
2022-12-18T17:07:28.198Z,-4.17
2022-12-18T17:09:54.848Z,-4.26
2022-12-18T17:12:22.459Z,-4.13
2022-12-18T17:14:49.209Z,-4.22
2022-12-18T17:17:24.014Z,-4.29
2022-12-18T17:19:52.119Z,-4.16
2022-12-18T17:22:19.335Z,-4.24
2022-12-18T17:24:46.712Z,-4.27
2022-12-18T17:27:13.248Z,-4.18
2022-12-18T17:29:45.358Z,-4.36
2022-12-18T17:32:14.140Z,-4.31
2022-12-18T17:34:40.915Z,-4.41
2022-12-18T17:37:07.821Z,-4.25
2022-12-18T17:39:35.654Z,-4.34
2022-12-18T17:42:02.164Z,-4.07
2022-12-18T17:44:28.721Z,-4.13
2022-12-18T17:46:55.853Z,-4.26
2022-12-18T17:49:22.412Z,-4.10
2022-12-18T17:51:49.103Z,-4.08
2022-12-18T17:54:15.671Z,-4.29
2022-12-18T17:56:42.195Z,-4.47
2022-12-18T17:59:09.214Z,-4.24
2022-12-18T18:01:42.397Z,-4.24
2022-12-18T18:04:11.126Z,-4.30
2022-12-18T18:06:38.987Z,-4.52
2022-12-18T18:09:06.437Z,-4.44
2022-12-18T18:11:55.084Z,-4.40
2022-12-18T18:14:22.926Z,-4.52
2022-12-18T18:16:52.054Z,-4.51
2022-12-18T18:19:23.818Z,-4.53
2022-12-18T18:21:52.006Z,-4.71
2022-12-18T18:24:20.533Z,-4.69
2022-12-18T18:26:47.413Z,-4.68
2022-12-18T18:29:22.198Z,-4.74
2022-12-18T18:31:49.041Z,-4.63
2022-12-18T18:34:22.360Z,-4.63
2022-12-18T18:36:48.955Z,-4.53
2022-12-18T18:39:15.366Z,-4.74
2022-12-18T18:41:42.180Z,-4.78
2022-12-18T18:44:13.637Z,-4.73
2022-12-18T18:46:40.181Z,-4.74
2022-12-18T18:49:06.819Z,-4.70
2022-12-18T18:51:35.275Z,-4.64
2022-12-18T18:54:02.749Z,-4.61
2022-12-18T18:59:16.884Z,-4.57
2022-12-18T19:01:44.326Z,-4.69
2022-12-18T19:04:11.009Z,-4.53
2022-12-18T19:06:37.634Z,-4.61
2022-12-18T19:09:06.607Z,-4.67
2022-12-18T19:11:52.122Z,-4.60
2022-12-18T19:14:18.546Z,-4.61
2022-12-18T19:16:45.729Z,-4.61
2022-12-18T19:19:12.925Z,-4.44
2022-12-18T19:21:39.693Z,-4.57
2022-12-18T19:24:06.605Z,-4.52
2022-12-18T19:26:33.241Z,-4.73
2022-12-18T19:29:05.335Z,-4.69
2022-12-18T19:31:36.074Z,-4.63
2022-12-18T19:34:04.992Z,-4.82
2022-12-18T19:36:32.161Z,-4.81
2022-12-18T19:39:00.761Z,-4.75
2022-12-18T19:41:29.172Z,-4.59
2022-12-18T19:43:59.732Z,-4.60
2022-12-18T19:46:26.326Z,-4.59
2022-12-18T19:48:52.838Z,-4.77
2022-12-18T19:51:26.518Z,-4.84
2022-12-18T19:53:58.944Z,-4.90
2022-12-18T19:56:28.714Z,-4.84
2022-12-18T19:58:55.630Z,-4.73
2022-12-18T20:01:24.119Z,-4.60
2022-12-18T20:03:52.772Z,-4.77
2022-12-18T20:06:25.612Z,-4.71
2022-12-18T20:08:54.024Z,-4.60
2022-12-18T20:11:24.914Z,-4.51
2022-12-18T20:13:51.548Z,-4.45
2022-12-18T20:16:18.154Z,-4.48
2022-12-18T20:18:44.898Z,-4.55
2022-12-18T20:21:14.066Z,-4.45
2022-12-18T20:23:41.618Z,-4.82
2022-12-18T20:26:08.753Z,-4.77
2022-12-18T20:28:35.471Z,-4.81
2022-12-18T20:31:03.862Z,-4.72
2022-12-18T20:33:32.363Z,-4.80
2022-12-18T20:36:03.835Z,-4.55
2022-12-18T20:38:30.665Z,-4.50
2022-12-18T20:40:59.323Z,-4.49
2022-12-18T20:43:25.919Z,-4.65
2022-12-18T20:46:00.873Z,-4.60
2022-12-18T20:48:28.491Z,-4.54
2022-12-18T20:51:05.854Z,-4.48
2022-12-18T20:53:33.032Z,-4.59
2022-12-18T20:55:59.550Z,-4.43
2022-12-18T20:58:26.042Z,-4.47
2022-12-18T21:01:06.655Z,-4.52
2022-12-18T21:03:36.942Z,-4.48
2022-12-18T21:06:04.070Z,-4.39
2022-12-18T21:08:30.594Z,-4.47
2022-12-18T21:11:33.057Z,-4.51
2022-12-18T21:13:59.474Z,-4.34
2022-12-18T21:16:25.958Z,-4.50
2022-12-18T21:18:54.532Z,-4.37
2022-12-18T21:21:26.225Z,-4.27
2022-12-18T21:23:53.607Z,-4.31
2022-12-18T21:26:22.588Z,-4.44
2022-12-18T21:28:58.641Z,-4.37
2022-12-18T21:31:27.954Z,-4.42
2022-12-18T21:33:55.861Z,-4.42
2022-12-18T21:36:29.601Z,-4.41
2022-12-18T21:38:56.681Z,-4.35
2022-12-18T21:41:42.598Z,-4.41
2022-12-18T21:44:12.474Z,-4.46
2022-12-18T21:46:41.539Z,-4.45
2022-12-18T21:49:09.748Z,-4.54
2022-12-18T21:51:36.631Z,-4.52
2022-12-18T21:54:04.077Z,-4.61
2022-12-18T21:56:44.405Z,-4.46
2022-12-18T21:59:12.958Z,-4.39
2022-12-18T22:01:39.366Z,-4.44
2022-12-18T22:04:05.906Z,-4.50
2022-12-18T22:06:32.476Z,-4.41
2022-12-18T22:08:58.962Z,-4.56
2022-12-18T22:11:25.514Z,-4.44
2022-12-18T22:13:52.010Z,-4.54
2022-12-18T22:16:18.570Z,-4.55
2022-12-18T22:18:44.946Z,-4.60
2022-12-18T22:21:28.519Z,-4.73
2022-12-18T22:24:01.624Z,-4.83
2022-12-18T22:26:31.806Z,-4.99
2022-12-18T22:29:20.400Z,-5.01
2022-12-18T22:31:47.129Z,-5.11
2022-12-18T22:34:13.687Z,-5.05
2022-12-18T22:36:44.065Z,-5.22
2022-12-18T22:39:16.953Z,-5.32
2022-12-18T22:41:43.595Z,-5.26
2022-12-18T22:44:10.668Z,-5.23
2022-12-18T22:46:44.281Z,-5.32
2022-12-18T22:49:20.740Z,-5.18
2022-12-18T22:51:48.273Z,-5.29
2022-12-18T22:54:15.272Z,-5.37
2022-12-18T22:56:42.984Z,-5.27
2022-12-18T22:59:16.418Z,-5.28
2022-12-18T23:01:43.290Z,-5.23
2022-12-18T23:04:12.069Z,-5.10
2022-12-18T23:06:39.444Z,-5.20
2022-12-18T23:09:06.734Z,-5.28
2022-12-18T23:11:33.478Z,-5.29
2022-12-18T23:13:59.864Z,-5.35
2022-12-18T23:16:26.417Z,-5.30
2022-12-18T23:18:55.579Z,-5.27
2022-12-18T23:21:23.138Z,-5.23
2022-12-18T23:23:51.382Z,-5.25
2022-12-18T23:26:23.350Z,-5.27
2022-12-18T23:28:52.108Z,-5.20
2022-12-18T23:31:30.390Z,-5.19
2022-12-18T23:33:58.861Z,-5.29
2022-12-18T23:36:25.881Z,-5.33
2022-12-18T23:38:55.181Z,-5.16
2022-12-18T23:41:23.587Z,-5.00
2022-12-18T23:43:50.066Z,-5.08
2022-12-18T23:46:25.502Z,-4.92
2022-12-18T23:48:52.125Z,-5.11
2022-12-18T23:51:23.405Z,-4.94
2022-12-18T23:53:50.950Z,-5.13
2022-12-18T23:56:17.468Z,-5.16
2022-12-18T23:58:44.470Z,-5.12
